Terminal Aerodrome Forecast
Issued by NWS Dodge City, KS

Home | Current Version | Previous Version | Text Only | Print | Product List | Glossary Off
Versions: 1 2 3 4 5 6 7 8 9 10 11 12 13 14 15 16 17 18 19 20 21 22 23 24 25 26 27 28 29 30 31 32 33 34 35 36 37 38 39 40 41 42

000
FTUS43 KDDC 191537 AAC
TAFDDC
TAF AMD
KDDC 191537Z 1916/2012 21006KT 2SM BR OVC003
      TEMPO 1916/1917 4SM BR
     FM191800 20004KT P6SM OVC010
     FM191900 20007KT P6SM SCT030
     FM200500 20006KT 4SM BR FEW250=

USA.gov is the U.S. government's official web portal to all federal, state and local government web resources and services.